sensor_id;sensor_type;location;lat;lon;timestamp;temperature;humidity
64951;DHT22;51482;47.014;7.652;2023-12-20T00:00:13;4.40;99.90
64951;DHT22;51482;47.014;7.652;2023-12-20T00:02:39;3.90;99.90
64951;DHT22;51482;47.014;7.652;2023-12-20T00:05:05;4.20;99.90
64951;DHT22;51482;47.014;7.652;2023-12-20T00:07:30;3.90;99.90
64951;DHT22;51482;47.014;7.652;2023-12-20T00:09:56;4.00;99.90
64951;DHT22;51482;47.014;7.652;2023-12-20T00:12:22;3.90;99.90
64951;DHT22;51482;47.014;7.652;2023-12-20T00:14:47;4.60;99.90
64951;DHT22;51482;47.014;7.652;2023-12-20T00:17:13;3.70;99.90
64951;DHT22;51482;47.014;7.652;2023-12-20T00:19:38;3.90;99.90
64951;DHT22;51482;47.014;7.652;2023-12-20T00:22:04;4.00;99.90
64951;DHT22;51482;47.014;7.652;2023-12-20T00:24:29;4.00;99.90
64951;DHT22;51482;47.014;7.652;2023-12-20T00:26:55;4.00;99.90
64951;DHT22;51482;47.014;7.652;2023-12-20T00:29:20;3.90;99.90
64951;DHT22;51482;47.014;7.652;2023-12-20T00:31:46;4.60;99.90
64951;DHT22;51482;47.014;7.652;2023-12-20T00:34:11;4.50;99.90
64951;DHT22;51482;47.014;7.652;2023-12-20T00:36:37;3.90;99.90
64951;DHT22;51482;47.014;7.652;2023-12-20T00:39:02;4.40;99.90
64951;DHT22;51482;47.014;7.652;2023-12-20T00:41:28;3.60;99.90
64951;DHT22;51482;47.014;7.652;2023-12-20T00:43:54;3.90;99.90
64951;DHT22;51482;47.014;7.652;2023-12-20T00:46:19;3.80;99.90
64951;DHT22;51482;47.014;7.652;2023-12-20T00:48:45;3.90;99.90
64951;DHT22;51482;47.014;7.652;2023-12-20T00:51:11;3.90;99.90
64951;DHT22;51482;47.014;7.652;2023-12-20T00:53:36;4.30;99.90
64951;DHT22;51482;47.014;7.652;2023-12-20T00:56:02;3.50;99.90
64951;DHT22;51482;47.014;7.652;2023-12-20T00:58:28;4.50;99.90
64951;DHT22;51482;47.014;7.652;2023-12-20T01:00:53;4.30;99.90
64951;DHT22;51482;47.014;7.652;2023-12-20T01:03:19;3.90;99.90
64951;DHT22;51482;47.014;7.652;2023-12-20T01:05:44;4.50;99.90
64951;DHT22;51482;47.014;7.652;2023-12-20T01:08:10;4.00;99.90
64951;DHT22;51482;47.014;7.652;2023-12-20T01:10:36;4.50;99.90
64951;DHT22;51482;47.014;7.652;2023-12-20T01:13:01;4.30;99.90
64951;DHT22;51482;47.014;7.652;2023-12-20T01:15:27;4.50;99.90
64951;DHT22;51482;47.014;7.652;2023-12-20T01:17:52;3.80;99.90
64951;DHT22;51482;47.014;7.652;2023-12-20T01:20:18;3.90;99.90
64951;DHT22;51482;47.014;7.652;2023-12-20T01:22:45;3.40;99.90
64951;DHT22;51482;47.014;7.652;2023-12-20T01:25:11;4.60;99.90
64951;DHT22;51482;47.014;7.652;2023-12-20T01:27:37;4.60;99.90
64951;DHT22;51482;47.014;7.652;2023-12-20T01:30:02;4.60;99.90
64951;DHT22;51482;47.014;7.652;2023-12-20T01:32:28;4.10;99.90
64951;DHT22;51482;47.014;7.652;2023-12-20T01:34:54;4.30;99.90
64951;DHT22;51482;47.014;7.652;2023-12-20T01:37:19;4.10;99.90
64951;DHT22;51482;47.014;7.652;2023-12-20T01:39:45;4.30;99.90
64951;DHT22;51482;47.014;7.652;2023-12-20T01:42:10;4.90;99.90
64951;DHT22;51482;47.014;7.652;2023-12-20T01:44:36;4.90;99.90
64951;DHT22;51482;47.014;7.652;2023-12-20T01:47:01;5.00;99.90
64951;DHT22;51482;47.014;7.652;2023-12-20T01:49:27;4.40;99.90
64951;DHT22;51482;47.014;7.652;2023-12-20T01:51:54;4.50;99.90
64951;DHT22;51482;47.014;7.652;2023-12-20T01:54:20;4.10;99.90
64951;DHT22;51482;47.014;7.652;2023-12-20T01:56:46;5.00;99.90
64951;DHT22;51482;47.014;7.652;2023-12-20T01:59:12;5.00;99.90
64951;DHT22;51482;47.014;7.652;2023-12-20T02:01:38;4.50;99.90
64951;DHT22;51482;47.014;7.652;2023-12-20T02:06:53;4.50;99.90
64951;DHT22;51482;47.014;7.652;2023-12-20T02:09:27;4.50;99.90
64951;DHT22;51482;47.014;7.652;2023-12-20T02:11:54;4.80;99.90
64951;DHT22;51482;47.014;7.652;2023-12-20T02:14:19;4.30;99.90
64951;DHT22;51482;47.014;7.652;2023-12-20T02:16:45;5.20;99.90
64951;DHT22;51482;47.014;7.652;2023-12-20T02:19:14;4.70;99.90
64951;DHT22;51482;47.014;7.652;2023-12-20T02:21:40;4.60;99.90
64951;DHT22;51482;47.014;7.652;2023-12-20T02:24:06;4.60;99.90
64951;DHT22;51482;47.014;7.652;2023-12-20T02:26:34;4.60;99.90
64951;DHT22;51482;47.014;7.652;2023-12-20T02:29:00;4.70;99.90
64951;DHT22;51482;47.014;7.652;2023-12-20T02:31:25;4.20;99.90
64951;DHT22;51482;47.014;7.652;2023-12-20T02:33:51;4.70;99.90
64951;DHT22;51482;47.014;7.652;2023-12-20T02:36:16;4.60;99.90
64951;DHT22;51482;47.014;7.652;2023-12-20T02:38:42;4.90;99.90
64951;DHT22;51482;47.014;7.652;2023-12-20T02:41:07;4.80;99.90
64951;DHT22;51482;47.014;7.652;2023-12-20T02:43:33;4.60;99.90
64951;DHT22;51482;47.014;7.652;2023-12-20T02:45:59;4.50;99.90
64951;DHT22;51482;47.014;7.652;2023-12-20T02:48:24;4.10;99.90
64951;DHT22;51482;47.014;7.652;2023-12-20T02:50:50;4.50;99.90
64951;DHT22;51482;47.014;7.652;2023-12-20T02:53:15;4.30;99.90
64951;DHT22;51482;47.014;7.652;2023-12-20T02:55:41;4.50;99.90
64951;DHT22;51482;47.014;7.652;2023-12-20T02:58:07;5.00;99.90
64951;DHT22;51482;47.014;7.652;2023-12-20T03:00:32;4.40;99.90
64951;DHT22;51482;47.014;7.652;2023-12-20T03:02:58;5.00;99.90
64951;DHT22;51482;47.014;7.652;2023-12-20T03:05:25;4.90;99.90
64951;DHT22;51482;47.014;7.652;2023-12-20T03:07:50;3.90;99.90
64951;DHT22;51482;47.014;7.652;2023-12-20T03:10:16;4.50;99.90
64951;DHT22;51482;47.014;7.652;2023-12-20T03:12:41;4.70;99.90
64951;DHT22;51482;47.014;7.652;2023-12-20T03:15:07;4.30;99.90
64951;DHT22;51482;47.014;7.652;2023-12-20T03:17:33;4.50;99.90
64951;DHT22;51482;47.014;7.652;2023-12-20T03:19:58;4.20;99.90
64951;DHT22;51482;47.014;7.652;2023-12-20T03:22:24;4.70;99.90
64951;DHT22;51482;47.014;7.652;2023-12-20T03:24:49;4.10;99.90
64951;DHT22;51482;47.014;7.652;2023-12-20T03:27:15;4.10;99.90
64951;DHT22;51482;47.014;7.652;2023-12-20T03:29:40;4.90;99.90
64951;DHT22;51482;47.014;7.652;2023-12-20T03:32:06;4.70;99.90
64951;DHT22;51482;47.014;7.652;2023-12-20T03:34:31;4.10;99.90
64951;DHT22;51482;47.014;7.652;2023-12-20T03:36:57;5.20;99.90
64951;DHT22;51482;47.014;7.652;2023-12-20T03:39:22;4.00;99.90
64951;DHT22;51482;47.014;7.652;2023-12-20T03:41:48;4.80;99.90
64951;DHT22;51482;47.014;7.652;2023-12-20T03:44:13;4.20;99.90
64951;DHT22;51482;47.014;7.652;2023-12-20T03:46:39;5.20;99.90
64951;DHT22;51482;47.014;7.652;2023-12-20T03:49:04;5.30;99.90
64951;DHT22;51482;47.014;7.652;2023-12-20T03:51:30;4.50;99.90
64951;DHT22;51482;47.014;7.652;2023-12-20T03:53:55;5.00;99.90
64951;DHT22;51482;47.014;7.652;2023-12-20T03:56:21;4.40;99.90
64951;DHT22;51482;47.014;7.652;2023-12-20T03:58:46;4.50;99.90
64951;DHT22;51482;47.014;7.652;2023-12-20T04:01:12;4.50;99.90
64951;DHT22;51482;47.014;7.652;2023-12-20T04:03:38;5.20;99.90
64951;DHT22;51482;47.014;7.652;2023-12-20T04:06:04;5.00;99.90
64951;DHT22;51482;47.014;7.652;2023-12-20T04:08:29;5.10;99.90
64951;DHT22;51482;47.014;7.652;2023-12-20T04:10:55;5.20;99.90
64951;DHT22;51482;47.014;7.652;2023-12-20T04:13:20;5.20;99.90
64951;DHT22;51482;47.014;7.652;2023-12-20T04:15:46;4.80;99.90
64951;DHT22;51482;47.014;7.652;2023-12-20T04:18:12;5.30;99.90
64951;DHT22;51482;47.014;7.652;2023-12-20T04:20:37;5.00;99.90
64951;DHT22;51482;47.014;7.652;2023-12-20T04:23:03;4.70;99.90
64951;DHT22;51482;47.014;7.652;2023-12-20T04:25:28;5.20;99.90
64951;DHT22;51482;47.014;7.652;2023-12-20T04:27:54;4.70;99.90
64951;DHT22;51482;47.014;7.652;2023-12-20T04:30:19;5.70;99.90
64951;DHT22;51482;47.014;7.652;2023-12-20T04:32:45;5.70;99.90
64951;DHT22;51482;47.014;7.652;2023-12-20T04:35:10;5.80;99.90
64951;DHT22;51482;47.014;7.652;2023-12-20T04:37:36;5.30;99.90
64951;DHT22;51482;47.014;7.652;2023-12-20T04:40:01;5.00;99.90
64951;DHT22;51482;47.014;7.652;2023-12-20T04:42:27;5.20;99.90
64951;DHT22;51482;47.014;7.652;2023-12-20T04:44:53;5.20;99.90
64951;DHT22;51482;47.014;7.652;2023-12-20T04:47:18;5.20;99.90
64951;DHT22;51482;47.014;7.652;2023-12-20T04:49:44;5.30;99.90
64951;DHT22;51482;47.014;7.652;2023-12-20T04:52:09;5.70;99.90
64951;DHT22;51482;47.014;7.652;2023-12-20T04:54:35;5.40;99.90
64951;DHT22;51482;47.014;7.652;2023-12-20T04:57:00;5.80;99.90
64951;DHT22;51482;47.014;7.652;2023-12-20T04:59:26;5.30;99.90
64951;DHT22;51482;47.014;7.652;2023-12-20T05:01:51;5.30;99.90
64951;DHT22;51482;47.014;7.652;2023-12-20T05:04:17;5.50;99.90
64951;DHT22;51482;47.014;7.652;2023-12-20T05:06:42;5.20;99.90
64951;DHT22;51482;47.014;7.652;2023-12-20T05:09:08;5.30;99.90
64951;DHT22;51482;47.014;7.652;2023-12-20T05:11:34;5.30;99.90
64951;DHT22;51482;47.014;7.652;2023-12-20T05:14:00;5.20;99.90
64951;DHT22;51482;47.014;7.652;2023-12-20T05:16:25;5.80;99.90
64951;DHT22;51482;47.014;7.652;2023-12-20T05:18:51;4.80;99.90
64951;DHT22;51482;47.014;7.652;2023-12-20T05:21:17;5.90;99.90
64951;DHT22;51482;47.014;7.652;2023-12-20T05:23:43;5.60;99.90
64951;DHT22;51482;47.014;7.652;2023-12-20T05:26:08;5.20;99.90
64951;DHT22;51482;47.014;7.652;2023-12-20T05:28:34;4.90;99.90
64951;DHT22;51482;47.014;7.652;2023-12-20T05:30:59;5.20;99.90
64951;DHT22;51482;47.014;7.652;2023-12-20T05:33:25;5.70;99.90
64951;DHT22;51482;47.014;7.652;2023-12-20T05:35:50;5.30;99.90
64951;DHT22;51482;47.014;7.652;2023-12-20T05:38:16;5.10;99.90
64951;DHT22;51482;47.014;7.652;2023-12-20T05:40:42;4.90;99.90
64951;DHT22;51482;47.014;7.652;2023-12-20T05:43:07;5.90;99.90
64951;DHT22;51482;47.014;7.652;2023-12-20T05:45:33;5.30;99.90
64951;DHT22;51482;47.014;7.652;2023-12-20T05:47:58;5.40;99.90
64951;DHT22;51482;47.014;7.652;2023-12-20T05:50:24;5.40;99.90
64951;DHT22;51482;47.014;7.652;2023-12-20T05:52:50;5.30;99.90
64951;DHT22;51482;47.014;7.652;2023-12-20T05:55:15;5.40;99.90
64951;DHT22;51482;47.014;7.652;2023-12-20T05:57:41;5.20;99.90
64951;DHT22;51482;47.014;7.652;2023-12-20T06:00:09;4.90;99.90
64951;DHT22;51482;47.014;7.652;2023-12-20T06:02:34;5.40;99.90
64951;DHT22;51482;47.014;7.652;2023-12-20T06:05:03;5.90;99.90
64951;DHT22;51482;47.014;7.652;2023-12-20T06:07:29;5.50;99.90
64951;DHT22;51482;47.014;7.652;2023-12-20T06:09:54;5.40;99.90
64951;DHT22;51482;47.014;7.652;2023-12-20T06:12:20;5.30;99.90
64951;DHT22;51482;47.014;7.652;2023-12-20T06:14:45;6.00;99.90
64951;DHT22;51482;47.014;7.652;2023-12-20T06:17:11;6.00;99.90
64951;DHT22;51482;47.014;7.652;2023-12-20T06:19:36;4.90;99.90
64951;DHT22;51482;47.014;7.652;2023-12-20T06:22:02;4.90;99.90
64951;DHT22;51482;47.014;7.652;2023-12-20T06:24:28;5.60;99.90
64951;DHT22;51482;47.014;7.652;2023-12-20T06:26:54;5.60;99.90
64951;DHT22;51482;47.014;7.652;2023-12-20T06:29:20;5.70;99.90
64951;DHT22;51482;47.014;7.652;2023-12-20T06:31:46;5.00;99.90
64951;DHT22;51482;47.014;7.652;2023-12-20T06:34:11;5.40;99.90
64951;DHT22;51482;47.014;7.652;2023-12-20T06:36:37;5.60;99.90
64951;DHT22;51482;47.014;7.652;2023-12-20T06:39:03;6.00;99.90
64951;DHT22;51482;47.014;7.652;2023-12-20T06:41:30;5.50;99.90
64951;DHT22;51482;47.014;7.652;2023-12-20T06:43:55;6.20;99.90
64951;DHT22;51482;47.014;7.652;2023-12-20T06:46:21;5.60;99.90
64951;DHT22;51482;47.014;7.652;2023-12-20T06:48:46;5.70;99.90
64951;DHT22;51482;47.014;7.652;2023-12-20T06:51:16;6.10;99.90
64951;DHT22;51482;47.014;7.652;2023-12-20T06:53:42;5.60;99.90
64951;DHT22;51482;47.014;7.652;2023-12-20T06:56:08;6.00;99.90
64951;DHT22;51482;47.014;7.652;2023-12-20T06:58:34;5.60;99.90
64951;DHT22;51482;47.014;7.652;2023-12-20T07:01:00;5.30;99.90
64951;DHT22;51482;47.014;7.652;2023-12-20T07:03:26;5.70;99.90
64951;DHT22;51482;47.014;7.652;2023-12-20T07:05:51;5.60;99.90
64951;DHT22;51482;47.014;7.652;2023-12-20T07:08:17;5.60;99.90
64951;DHT22;51482;47.014;7.652;2023-12-20T07:10:43;5.40;99.90
64951;DHT22;51482;47.014;7.652;2023-12-20T07:13:08;5.50;99.90
64951;DHT22;51482;47.014;7.652;2023-12-20T07:15:34;5.10;99.90
64951;DHT22;51482;47.014;7.652;2023-12-20T07:18:01;6.00;99.90
64951;DHT22;51482;47.014;7.652;2023-12-20T07:20:26;6.60;99.90
64951;DHT22;51482;47.014;7.652;2023-12-20T07:22:52;5.70;99.90
64951;DHT22;51482;47.014;7.652;2023-12-20T07:25:17;6.50;99.90
64951;DHT22;51482;47.014;7.652;2023-12-20T07:27:43;5.50;99.90
64951;DHT22;51482;47.014;7.652;2023-12-20T07:30:09;5.80;99.90
64951;DHT22;51482;47.014;7.652;2023-12-20T07:32:35;5.80;99.90
64951;DHT22;51482;47.014;7.652;2023-12-20T07:35:00;5.90;99.90
64951;DHT22;51482;47.014;7.652;2023-12-20T07:37:26;5.20;99.90
64951;DHT22;51482;47.014;7.652;2023-12-20T07:39:51;5.50;99.90
64951;DHT22;51482;47.014;7.652;2023-12-20T07:42:17;5.80;99.90
64951;DHT22;51482;47.014;7.652;2023-12-20T07:44:42;5.60;99.90
64951;DHT22;51482;47.014;7.652;2023-12-20T07:47:08;5.70;99.90
64951;DHT22;51482;47.014;7.652;2023-12-20T07:49:33;5.90;99.90
64951;DHT22;51482;47.014;7.652;2023-12-20T07:51:59;5.50;99.90
64951;DHT22;51482;47.014;7.652;2023-12-20T07:54:25;5.20;99.90
64951;DHT22;51482;47.014;7.652;2023-12-20T07:56:50;5.30;99.90
64951;DHT22;51482;47.014;7.652;2023-12-20T07:59:16;6.30;99.90
64951;DHT22;51482;47.014;7.652;2023-12-20T08:01:41;5.40;99.90
64951;DHT22;51482;47.014;7.652;2023-12-20T08:04:08;5.40;99.90
64951;DHT22;51482;47.014;7.652;2023-12-20T08:06:33;6.30;99.90
64951;DHT22;51482;47.014;7.652;2023-12-20T08:08:59;6.00;99.90
64951;DHT22;51482;47.014;7.652;2023-12-20T08:11:24;5.90;99.90
64951;DHT22;51482;47.014;7.652;2023-12-20T08:13:50;5.40;99.90
64951;DHT22;51482;47.014;7.652;2023-12-20T08:16:16;6.40;99.90
64951;DHT22;51482;47.014;7.652;2023-12-20T08:18:43;6.10;99.90
64951;DHT22;51482;47.014;7.652;2023-12-20T08:21:08;6.20;99.90
64951;DHT22;51482;47.014;7.652;2023-12-20T08:23:34;5.90;99.90
64951;DHT22;51482;47.014;7.652;2023-12-20T08:26:09;6.30;99.90
64951;DHT22;51482;47.014;7.652;2023-12-20T08:28:34;5.90;99.90
64951;DHT22;51482;47.014;7.652;2023-12-20T08:31:01;5.80;99.90
64951;DHT22;51482;47.014;7.652;2023-12-20T08:33:27;5.90;99.90
64951;DHT22;51482;47.014;7.652;2023-12-20T08:35:52;6.00;99.90
64951;DHT22;51482;47.014;7.652;2023-12-20T08:38:18;5.50;99.90
64951;DHT22;51482;47.014;7.652;2023-12-20T08:40:44;6.30;99.90
64951;DHT22;51482;47.014;7.652;2023-12-20T08:43:09;6.60;99.90
64951;DHT22;51482;47.014;7.652;2023-12-20T08:45:35;6.60;99.90
64951;DHT22;51482;47.014;7.652;2023-12-20T08:48:01;6.70;99.90
64951;DHT22;51482;47.014;7.652;2023-12-20T08:50:26;7.40;99.90
64951;DHT22;51482;47.014;7.652;2023-12-20T08:52:52;6.10;99.90
64951;DHT22;51482;47.014;7.652;2023-12-20T08:55:19;6.00;99.90
64951;DHT22;51482;47.014;7.652;2023-12-20T08:57:44;6.50;99.90
64951;DHT22;51482;47.014;7.652;2023-12-20T09:00:11;6.00;99.90
64951;DHT22;51482;47.014;7.652;2023-12-20T09:02:36;6.60;99.90
64951;DHT22;51482;47.014;7.652;2023-12-20T09:05:03;7.00;99.90
64951;DHT22;51482;47.014;7.652;2023-12-20T09:07:28;6.80;99.90
64951;DHT22;51482;47.014;7.652;2023-12-20T09:09:57;7.60;99.90
64951;DHT22;51482;47.014;7.652;2023-12-20T09:12:22;6.30;99.90
64951;DHT22;51482;47.014;7.652;2023-12-20T09:14:49;6.60;99.90
64951;DHT22;51482;47.014;7.652;2023-12-20T09:17:16;6.70;99.90
64951;DHT22;51482;47.014;7.652;2023-12-20T09:19:42;6.60;99.90
64951;DHT22;51482;47.014;7.652;2023-12-20T09:22:09;7.10;99.90
64951;DHT22;51482;47.014;7.652;2023-12-20T09:24:34;7.00;99.90
64951;DHT22;51482;47.014;7.652;2023-12-20T09:27:00;7.30;99.90
64951;DHT22;51482;47.014;7.652;2023-12-20T09:29:25;7.30;99.90
64951;DHT22;51482;47.014;7.652;2023-12-20T09:31:51;6.80;99.90
64951;DHT22;51482;47.014;7.652;2023-12-20T09:34:17;7.30;99.90
64951;DHT22;51482;47.014;7.652;2023-12-20T09:36:42;7.40;99.90
64951;DHT22;51482;47.014;7.652;2023-12-20T09:39:13;7.40;99.90
64951;DHT22;51482;47.014;7.652;2023-12-20T09:41:43;6.90;99.90
64951;DHT22;51482;47.014;7.652;2023-12-20T09:44:14;7.00;99.90
64951;DHT22;51482;47.014;7.652;2023-12-20T09:46:43;7.00;99.90
64951;DHT22;51482;47.014;7.652;2023-12-20T09:49:10;7.20;99.90
64951;DHT22;51482;47.014;7.652;2023-12-20T09:51:36;7.00;99.90
64951;DHT22;51482;47.014;7.652;2023-12-20T09:54:03;6.80;99.90
64951;DHT22;51482;47.014;7.652;2023-12-20T09:56:29;7.30;99.90
64951;DHT22;51482;47.014;7.652;2023-12-20T09:58:55;7.70;99.90
64951;DHT22;51482;47.014;7.652;2023-12-20T10:01:21;7.40;99.90
64951;DHT22;51482;47.014;7.652;2023-12-20T10:03:47;7.80;99.90
64951;DHT22;51482;47.014;7.652;2023-12-20T10:06:13;7.50;99.90
64951;DHT22;51482;47.014;7.652;2023-12-20T10:08:39;7.50;99.90
64951;DHT22;51482;47.014;7.652;2023-12-20T10:11:05;8.00;99.90
64951;DHT22;51482;47.014;7.652;2023-12-20T10:13:31;7.30;99.90
64951;DHT22;51482;47.014;7.652;2023-12-20T10:15:56;7.70;99.90
64951;DHT22;51482;47.014;7.652;2023-12-20T10:18:23;7.90;99.90
64951;DHT22;51482;47.014;7.652;2023-12-20T10:20:48;8.00;99.90
64951;DHT22;51482;47.014;7.652;2023-12-20T10:23:15;7.00;99.90
64951;DHT22;51482;47.014;7.652;2023-12-20T10:25:41;7.90;99.90
64951;DHT22;51482;47.014;7.652;2023-12-20T10:28:15;8.00;99.90
64951;DHT22;51482;47.014;7.652;2023-12-20T10:30:44;7.60;99.90
64951;DHT22;51482;47.014;7.652;2023-12-20T10:33:10;7.60;99.90
64951;DHT22;51482;47.014;7.652;2023-12-20T10:35:37;7.90;99.90
64951;DHT22;51482;47.014;7.652;2023-12-20T10:38:06;8.00;99.90
64951;DHT22;51482;47.014;7.652;2023-12-20T10:40:34;7.50;99.90
64951;DHT22;51482;47.014;7.652;2023-12-20T10:43:02;8.00;99.90
64951;DHT22;51482;47.014;7.652;2023-12-20T10:45:28;7.60;99.90
64951;DHT22;51482;47.014;7.652;2023-12-20T10:47:53;8.20;99.90
64951;DHT22;51482;47.014;7.652;2023-12-20T10:50:19;7.70;99.90
64951;DHT22;51482;47.014;7.652;2023-12-20T10:52:47;7.80;99.90
64951;DHT22;51482;47.014;7.652;2023-12-20T10:55:13;7.90;99.90
64951;DHT22;51482;47.014;7.652;2023-12-20T10:57:39;7.90;99.90
64951;DHT22;51482;47.014;7.652;2023-12-20T11:00:08;7.50;99.90
64951;DHT22;51482;47.014;7.652;2023-12-20T11:02:39;8.40;99.90
64951;DHT22;51482;47.014;7.652;2023-12-20T11:13:35;8.60;99.90
64951;DHT22;51482;47.014;7.652;2023-12-20T11:16:02;8.70;99.90
64951;DHT22;51482;47.014;7.652;2023-12-20T11:18:29;8.40;99.90
64951;DHT22;51482;47.014;7.652;2023-12-20T11:20:56;8.40;99.90
64951;DHT22;51482;47.014;7.652;2023-12-20T11:23:25;8.90;99.90
64951;DHT22;51482;47.014;7.652;2023-12-20T11:25:55;8.40;99.90
64951;DHT22;51482;47.014;7.652;2023-12-20T11:28:24;8.00;99.90
64951;DHT22;51482;47.014;7.652;2023-12-20T11:30:52;8.30;99.90
64951;DHT22;51482;47.014;7.652;2023-12-20T11:33:22;8.20;99.90
64951;DHT22;51482;47.014;7.652;2023-12-20T11:35:48;8.60;99.90
64951;DHT22;51482;47.014;7.652;2023-12-20T11:38:13;8.40;99.90
64951;DHT22;51482;47.014;7.652;2023-12-20T11:40:41;8.30;99.90
64951;DHT22;51482;47.014;7.652;2023-12-20T11:43:07;8.70;99.90
64951;DHT22;51482;47.014;7.652;2023-12-20T11:45:33;8.30;99.90
64951;DHT22;51482;47.014;7.652;2023-12-20T11:48:01;8.90;99.90
64951;DHT22;51482;47.014;7.652;2023-12-20T11:50:28;8.90;99.90
64951;DHT22;51482;47.014;7.652;2023-12-20T11:52:55;8.60;99.90
64951;DHT22;51482;47.014;7.652;2023-12-20T11:55:21;9.20;99.90
64951;DHT22;51482;47.014;7.652;2023-12-20T11:57:47;9.30;99.90
64951;DHT22;51482;47.014;7.652;2023-12-20T12:00:13;10.30;99.90
64951;DHT22;51482;47.014;7.652;2023-12-20T12:02:39;10.40;99.90
64951;DHT22;51482;47.014;7.652;2023-12-20T12:05:05;10.80;99.90
64951;DHT22;51482;47.014;7.652;2023-12-20T12:07:32;11.20;99.90
64951;DHT22;51482;47.014;7.652;2023-12-20T12:09:57;11.10;99.90
64951;DHT22;51482;47.014;7.652;2023-12-20T12:12:23;10.60;99.90
64951;DHT22;51482;47.014;7.652;2023-12-20T12:14:50;10.30;99.90
64951;DHT22;51482;47.014;7.652;2023-12-20T12:17:16;10.40;99.90
64951;DHT22;51482;47.014;7.652;2023-12-20T12:19:42;9.70;99.90
64951;DHT22;51482;47.014;7.652;2023-12-20T12:22:13;10.00;99.90
64951;DHT22;51482;47.014;7.652;2023-12-20T12:24:48;9.70;99.90
64951;DHT22;51482;47.014;7.652;2023-12-20T12:27:15;9.90;99.90
64951;DHT22;51482;47.014;7.652;2023-12-20T12:29:43;10.00;99.90
64951;DHT22;51482;47.014;7.652;2023-12-20T12:32:25;9.90;99.90
64951;DHT22;51482;47.014;7.652;2023-12-20T12:34:50;10.80;99.90
64951;DHT22;51482;47.014;7.652;2023-12-20T12:37:16;10.40;99.90
64951;DHT22;51482;47.014;7.652;2023-12-20T12:39:42;10.40;99.90
64951;DHT22;51482;47.014;7.652;2023-12-20T12:42:07;10.90;99.90
64951;DHT22;51482;47.014;7.652;2023-12-20T12:44:33;10.60;99.90
64951;DHT22;51482;47.014;7.652;2023-12-20T12:46:58;10.10;99.90
64951;DHT22;51482;47.014;7.652;2023-12-20T12:49:24;10.20;99.90
64951;DHT22;51482;47.014;7.652;2023-12-20T12:51:50;10.40;99.90
64951;DHT22;51482;47.014;7.652;2023-12-20T12:54:16;9.70;99.90
64951;DHT22;51482;47.014;7.652;2023-12-20T12:56:43;9.50;99.90
64951;DHT22;51482;47.014;7.652;2023-12-20T12:59:09;9.80;99.90
64951;DHT22;51482;47.014;7.652;2023-12-20T13:01:35;9.20;99.90
64951;DHT22;51482;47.014;7.652;2023-12-20T13:04:00;9.60;99.90
64951;DHT22;51482;47.014;7.652;2023-12-20T13:06:29;9.30;99.90
64951;DHT22;51482;47.014;7.652;2023-12-20T13:08:54;8.70;99.90
64951;DHT22;51482;47.014;7.652;2023-12-20T13:11:20;9.00;99.90
64951;DHT22;51482;47.014;7.652;2023-12-20T13:13:46;8.70;99.90
64951;DHT22;51482;47.014;7.652;2023-12-20T13:16:12;8.60;99.90
64951;DHT22;51482;47.014;7.652;2023-12-20T13:18:37;8.40;99.90
64951;DHT22;51482;47.014;7.652;2023-12-20T13:21:07;8.20;99.90
64951;DHT22;51482;47.014;7.652;2023-12-20T13:23:33;8.30;99.90
64951;DHT22;51482;47.014;7.652;2023-12-20T13:25:58;8.30;99.90
64951;DHT22;51482;47.014;7.652;2023-12-20T13:28:24;8.10;99.90
64951;DHT22;51482;47.014;7.652;2023-12-20T13:30:49;7.60;99.90
64951;DHT22;51482;47.014;7.652;2023-12-20T13:33:15;7.60;99.90
64951;DHT22;51482;47.014;7.652;2023-12-20T13:35:40;8.10;99.90
64951;DHT22;51482;47.014;7.652;2023-12-20T13:38:06;7.40;99.90
64951;DHT22;51482;47.014;7.652;2023-12-20T13:40:33;7.70;99.90
64951;DHT22;51482;47.014;7.652;2023-12-20T13:42:58;7.30;99.90
64951;DHT22;51482;47.014;7.652;2023-12-20T13:45:24;7.10;99.90
64951;DHT22;51482;47.014;7.652;2023-12-20T13:47:51;7.70;99.90
64951;DHT22;51482;47.014;7.652;2023-12-20T13:50:16;7.30;99.90
64951;DHT22;51482;47.014;7.652;2023-12-20T13:52:42;6.70;99.90
64951;DHT22;51482;47.014;7.652;2023-12-20T13:55:08;7.10;99.90
64951;DHT22;51482;47.014;7.652;2023-12-20T13:57:34;7.40;99.90
64951;DHT22;51482;47.014;7.652;2023-12-20T14:00:03;6.50;99.90
64951;DHT22;51482;47.014;7.652;2023-12-20T14:02:30;7.00;99.90
64951;DHT22;51482;47.014;7.652;2023-12-20T14:04:55;7.50;99.90
64951;DHT22;51482;47.014;7.652;2023-12-20T14:07:21;7.00;99.90
64951;DHT22;51482;47.014;7.652;2023-12-20T14:09:46;6.50;99.90
64951;DHT22;51482;47.014;7.652;2023-12-20T14:12:12;7.10;99.90
64951;DHT22;51482;47.014;7.652;2023-12-20T14:14:38;6.80;99.90
64951;DHT22;51482;47.014;7.652;2023-12-20T14:17:04;7.10;99.90
64951;DHT22;51482;47.014;7.652;2023-12-20T14:19:32;7.00;99.90
64951;DHT22;51482;47.014;7.652;2023-12-20T14:21:57;6.80;99.90
64951;DHT22;51482;47.014;7.652;2023-12-20T14:24:27;6.40;99.90
64951;DHT22;51482;47.014;7.652;2023-12-20T14:26:52;6.80;99.90
64951;DHT22;51482;47.014;7.652;2023-12-20T14:29:18;6.50;99.90
64951;DHT22;51482;47.014;7.652;2023-12-20T14:31:44;7.10;99.90
64951;DHT22;51482;47.014;7.652;2023-12-20T14:34:09;6.50;99.90
64951;DHT22;51482;47.014;7.652;2023-12-20T14:36:35;5.80;99.90
64951;DHT22;51482;47.014;7.652;2023-12-20T14:39:00;6.00;99.90
64951;DHT22;51482;47.014;7.652;2023-12-20T14:41:28;6.30;99.90
64951;DHT22;51482;47.014;7.652;2023-12-20T14:43:53;6.10;99.90
64951;DHT22;51482;47.014;7.652;2023-12-20T14:46:20;6.70;99.90
64951;DHT22;51482;47.014;7.652;2023-12-20T14:48:46;6.00;99.90
64951;DHT22;51482;47.014;7.652;2023-12-20T14:51:11;6.30;99.90
64951;DHT22;51482;47.014;7.652;2023-12-20T14:53:38;6.00;99.90
64951;DHT22;51482;47.014;7.652;2023-12-20T14:56:05;6.90;99.90
64951;DHT22;51482;47.014;7.652;2023-12-20T14:58:30;6.50;99.90
64951;DHT22;51482;47.014;7.652;2023-12-20T15:00:57;7.00;99.90
64951;DHT22;51482;47.014;7.652;2023-12-20T15:03:22;6.60;99.90
64951;DHT22;51482;47.014;7.652;2023-12-20T15:05:48;6.60;99.90
64951;DHT22;51482;47.014;7.652;2023-12-20T15:08:14;6.60;99.90
64951;DHT22;51482;47.014;7.652;2023-12-20T15:10:39;6.80;99.90
64951;DHT22;51482;47.014;7.652;2023-12-20T15:13:05;6.50;99.90
64951;DHT22;51482;47.014;7.652;2023-12-20T15:15:31;7.00;99.90
64951;DHT22;51482;47.014;7.652;2023-12-20T15:17:59;6.80;99.90
64951;DHT22;51482;47.014;7.652;2023-12-20T15:20:24;6.60;99.90
64951;DHT22;51482;47.014;7.652;2023-12-20T15:22:50;6.90;99.90
64951;DHT22;51482;47.014;7.652;2023-12-20T15:25:15;6.30;99.90
64951;DHT22;51482;47.014;7.652;2023-12-20T15:27:50;6.80;99.90
64951;DHT22;51482;47.014;7.652;2023-12-20T15:30:19;6.50;99.90
64951;DHT22;51482;47.014;7.652;2023-12-20T15:32:45;5.80;99.90
64951;DHT22;51482;47.014;7.652;2023-12-20T15:35:11;5.70;99.90
64951;DHT22;51482;47.014;7.652;2023-12-20T15:37:38;5.40;99.90
64951;DHT22;51482;47.014;7.652;2023-12-20T15:40:04;5.90;99.90
64951;DHT22;51482;47.014;7.652;2023-12-20T15:42:30;5.20;99.90
64951;DHT22;51482;47.014;7.652;2023-12-20T15:44:57;5.40;99.90
64951;DHT22;51482;47.014;7.652;2023-12-20T15:47:22;5.10;99.90